sensor_id;sensor_type;location;lat;lon;timestamp;P1;durP1;ratioP1;P2;durP2;ratioP2
67902;SDS011;54708;43.612;1.568;2023-10-09T00:00:53;7.82;;;4.53;;
67902;SDS011;54708;43.612;1.568;2023-10-09T00:03:26;10.13;;;5.82;;
67902;SDS011;54708;43.612;1.568;2023-10-09T00:05:53;9.75;;;5.43;;
67902;SDS011;54708;43.612;1.568;2023-10-09T00:08:19;12.50;;;5.28;;
67902;SDS011;54708;43.612;1.568;2023-10-09T00:10:51;7.82;;;4.68;;
67902;SDS011;54708;43.612;1.568;2023-10-09T00:13:20;11.75;;;5.55;;
67902;SDS011;54708;43.612;1.568;2023-10-09T00:18:22;10.32;;;5.35;;
67902;SDS011;54708;43.612;1.568;2023-10-09T00:20:53;7.20;;;4.60;;
67902;SDS011;54708;43.612;1.568;2023-10-09T00:23:20;8.40;;;4.78;;
67902;SDS011;54708;43.612;1.568;2023-10-09T00:25:50;7.78;;;4.20;;
67902;SDS011;54708;43.612;1.568;2023-10-09T00:28:35;10.43;;;4.38;;
67902;SDS011;54708;43.612;1.568;2023-10-09T00:31:05;7.50;;;4.38;;
67902;SDS011;54708;43.612;1.568;2023-10-09T00:33:32;6.57;;;3.90;;
67902;SDS011;54708;43.612;1.568;2023-10-09T00:36:01;7.60;;;3.42;;
67902;SDS011;54708;43.612;1.568;2023-10-09T00:38:38;6.75;;;4.20;;
67902;SDS011;54708;43.612;1.568;2023-10-09T00:41:13;5.25;;;3.78;;
67902;SDS011;54708;43.612;1.568;2023-10-09T00:43:45;7.47;;;4.53;;
67902;SDS011;54708;43.612;1.568;2023-10-09T00:46:10;6.65;;;3.97;;
67902;SDS011;54708;43.612;1.568;2023-10-09T00:48:42;7.80;;;4.45;;
67902;SDS011;54708;43.612;1.568;2023-10-09T00:51:07;9.10;;;4.45;;
67902;SDS011;54708;43.612;1.568;2023-10-09T00:53:49;6.95;;;4.25;;
67902;SDS011;54708;43.612;1.568;2023-10-09T00:56:23;6.72;;;4.35;;
67902;SDS011;54708;43.612;1.568;2023-10-09T00:58:52;8.35;;;4.50;;
67902;SDS011;54708;43.612;1.568;2023-10-09T01:01:25;6.78;;;4.57;;
67902;SDS011;54708;43.612;1.568;2023-10-09T01:03:59;9.32;;;4.38;;
67902;SDS011;54708;43.612;1.568;2023-10-09T01:06:42;5.72;;;3.78;;
67902;SDS011;54708;43.612;1.568;2023-10-09T01:09:13;7.60;;;3.40;;
67902;SDS011;54708;43.612;1.568;2023-10-09T01:11:40;8.38;;;4.57;;
67902;SDS011;54708;43.612;1.568;2023-10-09T01:14:23;11.27;;;4.45;;
67902;SDS011;54708;43.612;1.568;2023-10-09T01:16:49;5.18;;;3.75;;
67902;SDS011;54708;43.612;1.568;2023-10-09T01:19:18;7.10;;;4.75;;
67902;SDS011;54708;43.612;1.568;2023-10-09T01:21:52;6.30;;;4.40;;
67902;SDS011;54708;43.612;1.568;2023-10-09T01:24:18;7.95;;;4.60;;
67902;SDS011;54708;43.612;1.568;2023-10-09T01:26:45;7.85;;;4.00;;
67902;SDS011;54708;43.612;1.568;2023-10-09T01:29:21;7.68;;;4.05;;
67902;SDS011;54708;43.612;1.568;2023-10-09T01:31:48;10.63;;;4.15;;
67902;SDS011;54708;43.612;1.568;2023-10-09T01:37:03;7.43;;;4.82;;
67902;SDS011;54708;43.612;1.568;2023-10-09T01:39:50;6.57;;;3.53;;
67902;SDS011;54708;43.612;1.568;2023-10-09T01:42:38;7.47;;;4.68;;
67902;SDS011;54708;43.612;1.568;2023-10-09T01:45:10;7.47;;;4.10;;
67902;SDS011;54708;43.612;1.568;2023-10-09T01:47:36;9.73;;;5.28;;
67902;SDS011;54708;43.612;1.568;2023-10-09T01:50:05;8.38;;;4.05;;
67902;SDS011;54708;43.612;1.568;2023-10-09T01:52:43;5.95;;;4.55;;
67902;SDS011;54708;43.612;1.568;2023-10-09T01:55:08;6.90;;;4.10;;
67902;SDS011;54708;43.612;1.568;2023-10-09T01:57:38;7.10;;;4.50;;
67902;SDS011;54708;43.612;1.568;2023-10-09T02:00:04;6.20;;;3.65;;
67902;SDS011;54708;43.612;1.568;2023-10-09T02:02:32;6.75;;;4.50;;
67902;SDS011;54708;43.612;1.568;2023-10-09T02:05:01;7.05;;;3.95;;
67902;SDS011;54708;43.612;1.568;2023-10-09T02:07:39;5.57;;;3.58;;
67902;SDS011;54708;43.612;1.568;2023-10-09T02:10:17;6.10;;;3.78;;
67902;SDS011;54708;43.612;1.568;2023-10-09T02:12:49;5.82;;;4.60;;
67902;SDS011;54708;43.612;1.568;2023-10-09T02:15:38;7.43;;;4.70;;
67902;SDS011;54708;43.612;1.568;2023-10-09T02:18:11;8.35;;;4.05;;
67902;SDS011;54708;43.612;1.568;2023-10-09T02:20:52;9.00;;;4.25;;
67902;SDS011;54708;43.612;1.568;2023-10-09T02:23:24;6.45;;;3.78;;
67902;SDS011;54708;43.612;1.568;2023-10-09T02:25:57;10.40;;;4.55;;
67902;SDS011;54708;43.612;1.568;2023-10-09T02:28:23;8.10;;;4.20;;
67902;SDS011;54708;43.612;1.568;2023-10-09T02:30:48;7.75;;;4.30;;
67902;SDS011;54708;43.612;1.568;2023-10-09T02:33:15;8.55;;;4.10;;
67902;SDS011;54708;43.612;1.568;2023-10-09T02:35:46;7.28;;;4.07;;
67902;SDS011;54708;43.612;1.568;2023-10-09T02:38:16;8.55;;;4.95;;
67902;SDS011;54708;43.612;1.568;2023-10-09T02:40:42;9.88;;;4.28;;
67902;SDS011;54708;43.612;1.568;2023-10-09T02:43:30;7.22;;;4.57;;
67902;SDS011;54708;43.612;1.568;2023-10-09T02:46:10;8.10;;;4.28;;
67902;SDS011;54708;43.612;1.568;2023-10-09T02:48:45;6.38;;;4.03;;
67902;SDS011;54708;43.612;1.568;2023-10-09T02:51:21;7.80;;;3.97;;
67902;SDS011;54708;43.612;1.568;2023-10-09T02:56:18;6.53;;;4.00;;
67902;SDS011;54708;43.612;1.568;2023-10-09T02:58:50;8.15;;;4.63;;
67902;SDS011;54708;43.612;1.568;2023-10-09T03:01:16;6.38;;;3.88;;
67902;SDS011;54708;43.612;1.568;2023-10-09T03:03:41;7.90;;;4.43;;
67902;SDS011;54708;43.612;1.568;2023-10-09T03:06:14;5.68;;;3.78;;
67902;SDS011;54708;43.612;1.568;2023-10-09T03:08:50;6.93;;;4.63;;
67902;SDS011;54708;43.612;1.568;2023-10-09T03:11:15;8.45;;;4.78;;
67902;SDS011;54708;43.612;1.568;2023-10-09T03:13:41;5.53;;;3.42;;
67902;SDS011;54708;43.612;1.568;2023-10-09T03:16:08;10.40;;;4.32;;
67902;SDS011;54708;43.612;1.568;2023-10-09T03:18:47;8.02;;;4.75;;
67902;SDS011;54708;43.612;1.568;2023-10-09T03:21:14;8.43;;;4.10;;
67902;SDS011;54708;43.612;1.568;2023-10-09T03:23:41;8.95;;;4.65;;
67902;SDS011;54708;43.612;1.568;2023-10-09T03:26:08;7.88;;;4.38;;
67902;SDS011;54708;43.612;1.568;2023-10-09T03:28:36;7.55;;;4.38;;
67902;SDS011;54708;43.612;1.568;2023-10-09T03:31:01;6.57;;;4.00;;
67902;SDS011;54708;43.612;1.568;2023-10-09T03:33:31;7.40;;;4.55;;
67902;SDS011;54708;43.612;1.568;2023-10-09T03:35:58;7.93;;;4.63;;
67902;SDS011;54708;43.612;1.568;2023-10-09T03:38:25;8.02;;;5.35;;
67902;SDS011;54708;43.612;1.568;2023-10-09T03:40:54;7.30;;;4.55;;
67902;SDS011;54708;43.612;1.568;2023-10-09T03:43:19;7.78;;;4.25;;
67902;SDS011;54708;43.612;1.568;2023-10-09T03:45:46;7.35;;;4.65;;
67902;SDS011;54708;43.612;1.568;2023-10-09T03:48:18;7.60;;;4.45;;
67902;SDS011;54708;43.612;1.568;2023-10-09T03:50:51;8.25;;;4.35;;
67902;SDS011;54708;43.612;1.568;2023-10-09T03:53:33;8.13;;;3.80;;
67902;SDS011;54708;43.612;1.568;2023-10-09T03:56:01;8.77;;;4.78;;
67902;SDS011;54708;43.612;1.568;2023-10-09T03:58:30;6.47;;;4.55;;
67902;SDS011;54708;43.612;1.568;2023-10-09T04:00:58;9.05;;;4.70;;
67902;SDS011;54708;43.612;1.568;2023-10-09T04:03:24;7.93;;;4.30;;
67902;SDS011;54708;43.612;1.568;2023-10-09T04:05:49;7.60;;;3.95;;
67902;SDS011;54708;43.612;1.568;2023-10-09T04:08:16;8.10;;;4.68;;
67902;SDS011;54708;43.612;1.568;2023-10-09T04:10:45;6.32;;;4.43;;
67902;SDS011;54708;43.612;1.568;2023-10-09T04:13:19;7.10;;;4.75;;
67902;SDS011;54708;43.612;1.568;2023-10-09T04:15:49;7.47;;;4.07;;
67902;SDS011;54708;43.612;1.568;2023-10-09T04:18:17;9.48;;;5.70;;
67902;SDS011;54708;43.612;1.568;2023-10-09T04:20:42;7.03;;;4.18;;
67902;SDS011;54708;43.612;1.568;2023-10-09T04:23:26;9.32;;;4.75;;
67902;SDS011;54708;43.612;1.568;2023-10-09T04:26:20;6.00;;;4.05;;
67902;SDS011;54708;43.612;1.568;2023-10-09T04:28:46;7.55;;;4.45;;
67902;SDS011;54708;43.612;1.568;2023-10-09T04:31:16;7.32;;;4.43;;
67902;SDS011;54708;43.612;1.568;2023-10-09T04:33:45;5.78;;;3.92;;
67902;SDS011;54708;43.612;1.568;2023-10-09T04:36:31;8.20;;;5.10;;
67902;SDS011;54708;43.612;1.568;2023-10-09T04:39:11;7.78;;;4.20;;
67902;SDS011;54708;43.612;1.568;2023-10-09T04:41:36;6.45;;;4.57;;
67902;SDS011;54708;43.612;1.568;2023-10-09T04:44:07;7.82;;;4.72;;
67902;SDS011;54708;43.612;1.568;2023-10-09T04:46:50;7.10;;;5.00;;
67902;SDS011;54708;43.612;1.568;2023-10-09T04:49:34;9.25;;;4.95;;
67902;SDS011;54708;43.612;1.568;2023-10-09T04:52:12;8.05;;;4.57;;
67902;SDS011;54708;43.612;1.568;2023-10-09T04:54:58;10.43;;;5.60;;
67902;SDS011;54708;43.612;1.568;2023-10-09T04:57:42;7.18;;;5.20;;
67902;SDS011;54708;43.612;1.568;2023-10-09T05:00:09;8.05;;;5.43;;
67902;SDS011;54708;43.612;1.568;2023-10-09T05:02:50;7.45;;;5.47;;
67902;SDS011;54708;43.612;1.568;2023-10-09T05:05:23;11.25;;;5.10;;
67902;SDS011;54708;43.612;1.568;2023-10-09T05:10:47;9.13;;;5.95;;
67902;SDS011;54708;43.612;1.568;2023-10-09T05:13:35;9.45;;;5.10;;
67902;SDS011;54708;43.612;1.568;2023-10-09T05:16:13;7.45;;;4.15;;
67902;SDS011;54708;43.612;1.568;2023-10-09T05:18:52;10.25;;;5.43;;
67902;SDS011;54708;43.612;1.568;2023-10-09T05:21:24;8.05;;;5.00;;
67902;SDS011;54708;43.612;1.568;2023-10-09T05:23:57;10.95;;;5.82;;
67902;SDS011;54708;43.612;1.568;2023-10-09T05:31:51;13.10;;;6.03;;
67902;SDS011;54708;43.612;1.568;2023-10-09T05:34:29;21.45;;;6.30;;
67902;SDS011;54708;43.612;1.568;2023-10-09T05:37:21;26.52;;;5.95;;
67902;SDS011;54708;43.612;1.568;2023-10-09T05:40:12;20.77;;;7.20;;
67902;SDS011;54708;43.612;1.568;2023-10-09T05:42:41;15.60;;;6.35;;
67902;SDS011;54708;43.612;1.568;2023-10-09T05:45:07;11.70;;;5.25;;
67902;SDS011;54708;43.612;1.568;2023-10-09T05:47:42;12.50;;;5.22;;
67902;SDS011;54708;43.612;1.568;2023-10-09T05:52:50;8.38;;;4.57;;
67902;SDS011;54708;43.612;1.568;2023-10-09T05:55:19;11.77;;;4.97;;
67902;SDS011;54708;43.612;1.568;2023-10-09T05:58:03;8.55;;;5.15;;
67902;SDS011;54708;43.612;1.568;2023-10-09T06:00:47;9.43;;;4.88;;
67902;SDS011;54708;43.612;1.568;2023-10-09T06:03:31;7.85;;;5.07;;
67902;SDS011;54708;43.612;1.568;2023-10-09T06:06:15;13.38;;;5.55;;
67902;SDS011;54708;43.612;1.568;2023-10-09T06:08:58;17.20;;;6.32;;
67902;SDS011;54708;43.612;1.568;2023-10-09T06:11:55;8.10;;;4.07;;
67902;SDS011;54708;43.612;1.568;2023-10-09T06:14:41;29.83;;;6.63;;
67902;SDS011;54708;43.612;1.568;2023-10-09T06:17:06;24.65;;;5.50;;
67902;SDS011;54708;43.612;1.568;2023-10-09T06:19:48;12.98;;;5.30;;
67902;SDS011;54708;43.612;1.568;2023-10-09T06:22:14;19.10;;;5.75;;
67902;SDS011;54708;43.612;1.568;2023-10-09T06:25:17;9.23;;;5.65;;
67902;SDS011;54708;43.612;1.568;2023-10-09T06:27:43;11.45;;;5.55;;
67902;SDS011;54708;43.612;1.568;2023-10-09T06:30:11;10.65;;;5.88;;
67902;SDS011;54708;43.612;1.568;2023-10-09T06:32:37;18.67;;;7.07;;
67902;SDS011;54708;43.612;1.568;2023-10-09T06:35:03;14.60;;;5.40;;
67902;SDS011;54708;43.612;1.568;2023-10-09T06:37:41;15.75;;;5.13;;
67902;SDS011;54708;43.612;1.568;2023-10-09T06:40:32;10.90;;;5.80;;
67902;SDS011;54708;43.612;1.568;2023-10-09T06:43:05;12.93;;;5.30;;
67902;SDS011;54708;43.612;1.568;2023-10-09T06:45:35;9.98;;;4.40;;
67902;SDS011;54708;43.612;1.568;2023-10-09T06:48:09;8.02;;;4.15;;
67902;SDS011;54708;43.612;1.568;2023-10-09T06:50:55;9.27;;;5.35;;
67902;SDS011;54708;43.612;1.568;2023-10-09T06:53:28;12.93;;;4.88;;
67902;SDS011;54708;43.612;1.568;2023-10-09T06:56:14;13.18;;;6.00;;
67902;SDS011;54708;43.612;1.568;2023-10-09T06:58:57;16.23;;;5.15;;
67902;SDS011;54708;43.612;1.568;2023-10-09T07:01:26;8.63;;;4.60;;
67902;SDS011;54708;43.612;1.568;2023-10-09T07:04:22;13.48;;;7.10;;
67902;SDS011;54708;43.612;1.568;2023-10-09T07:06:57;22.02;;;5.80;;
67902;SDS011;54708;43.612;1.568;2023-10-09T07:09:24;19.20;;;5.95;;
67902;SDS011;54708;43.612;1.568;2023-10-09T07:14:34;13.18;;;6.47;;
67902;SDS011;54708;43.612;1.568;2023-10-09T07:17:02;11.73;;;4.90;;
67902;SDS011;54708;43.612;1.568;2023-10-09T07:19:54;11.65;;;4.90;;
67902;SDS011;54708;43.612;1.568;2023-10-09T07:22:20;10.00;;;5.78;;
67902;SDS011;54708;43.612;1.568;2023-10-09T07:25:03;10.80;;;5.07;;
67902;SDS011;54708;43.612;1.568;2023-10-09T07:27:39;9.15;;;5.78;;
67902;SDS011;54708;43.612;1.568;2023-10-09T07:30:16;11.70;;;5.38;;
67902;SDS011;54708;43.612;1.568;2023-10-09T07:32:56;9.88;;;5.80;;
67902;SDS011;54708;43.612;1.568;2023-10-09T07:35:45;11.25;;;5.95;;
67902;SDS011;54708;43.612;1.568;2023-10-09T07:38:19;16.30;;;4.88;;
67902;SDS011;54708;43.612;1.568;2023-10-09T07:40:53;13.45;;;5.53;;
67902;SDS011;54708;43.612;1.568;2023-10-09T07:43:45;13.52;;;4.72;;
67902;SDS011;54708;43.612;1.568;2023-10-09T07:46:11;18.83;;;5.85;;
67902;SDS011;54708;43.612;1.568;2023-10-09T07:48:57;10.43;;;5.55;;
67902;SDS011;54708;43.612;1.568;2023-10-09T07:51:26;15.18;;;5.50;;
67902;SDS011;54708;43.612;1.568;2023-10-09T07:53:58;14.63;;;5.93;;
67902;SDS011;54708;43.612;1.568;2023-10-09T07:56:35;12.25;;;5.13;;
67902;SDS011;54708;43.612;1.568;2023-10-09T07:59:09;8.38;;;4.93;;
67902;SDS011;54708;43.612;1.568;2023-10-09T08:04:17;12.50;;;4.95;;
67902;SDS011;54708;43.612;1.568;2023-10-09T08:07:02;10.40;;;5.20;;
67902;SDS011;54708;43.612;1.568;2023-10-09T08:09:31;9.50;;;5.20;;
67902;SDS011;54708;43.612;1.568;2023-10-09T08:12:12;10.75;;;4.82;;
67902;SDS011;54708;43.612;1.568;2023-10-09T08:15:04;8.00;;;4.63;;
67902;SDS011;54708;43.612;1.568;2023-10-09T08:17:44;8.32;;;4.78;;
67902;SDS011;54708;43.612;1.568;2023-10-09T08:20:16;6.18;;;4.55;;
67902;SDS011;54708;43.612;1.568;2023-10-09T08:22:42;8.05;;;5.32;;
67902;SDS011;54708;43.612;1.568;2023-10-09T08:25:08;8.20;;;5.05;;
67902;SDS011;54708;43.612;1.568;2023-10-09T08:27:51;8.15;;;4.63;;
67902;SDS011;54708;43.612;1.568;2023-10-09T08:30:57;11.15;;;5.15;;
67902;SDS011;54708;43.612;1.568;2023-10-09T08:33:29;11.20;;;5.20;;
67902;SDS011;54708;43.612;1.568;2023-10-09T08:36:04;8.10;;;5.13;;
67902;SDS011;54708;43.612;1.568;2023-10-09T08:38:32;8.88;;;5.90;;
67902;SDS011;54708;43.612;1.568;2023-10-09T08:41:08;9.10;;;4.50;;
67902;SDS011;54708;43.612;1.568;2023-10-09T08:43:44;7.78;;;4.20;;
67902;SDS011;54708;43.612;1.568;2023-10-09T08:46:12;7.53;;;4.90;;
67902;SDS011;54708;43.612;1.568;2023-10-09T08:48:43;6.93;;;3.88;;
67902;SDS011;54708;43.612;1.568;2023-10-09T08:51:09;7.50;;;4.05;;
67902;SDS011;54708;43.612;1.568;2023-10-09T08:53:35;7.22;;;3.85;;
67902;SDS011;54708;43.612;1.568;2023-10-09T08:56:00;6.10;;;4.10;;
67902;SDS011;54708;43.612;1.568;2023-10-09T08:58:29;7.97;;;4.40;;
67902;SDS011;54708;43.612;1.568;2023-10-09T09:01:01;5.82;;;3.88;;
67902;SDS011;54708;43.612;1.568;2023-10-09T09:03:34;7.75;;;4.43;;
67902;SDS011;54708;43.612;1.568;2023-10-09T09:06:02;5.45;;;4.03;;
67902;SDS011;54708;43.612;1.568;2023-10-09T09:08:29;6.90;;;4.43;;
67902;SDS011;54708;43.612;1.568;2023-10-09T09:10:56;7.05;;;4.20;;
67902;SDS011;54708;43.612;1.568;2023-10-09T09:13:36;6.25;;;3.97;;
67902;SDS011;54708;43.612;1.568;2023-10-09T09:16:12;9.13;;;4.55;;
67902;SDS011;54708;43.612;1.568;2023-10-09T09:19:01;6.50;;;4.20;;
67902;SDS011;54708;43.612;1.568;2023-10-09T09:21:39;6.03;;;3.95;;
67902;SDS011;54708;43.612;1.568;2023-10-09T09:24:07;5.25;;;3.70;;
67902;SDS011;54708;43.612;1.568;2023-10-09T09:27:04;5.22;;;3.50;;
67902;SDS011;54708;43.612;1.568;2023-10-09T09:29:43;5.78;;;3.90;;
67902;SDS011;54708;43.612;1.568;2023-10-09T09:32:18;5.50;;;4.10;;
67902;SDS011;54708;43.612;1.568;2023-10-09T09:34:55;6.53;;;3.85;;
67902;SDS011;54708;43.612;1.568;2023-10-09T09:37:26;6.63;;;4.13;;
67902;SDS011;54708;43.612;1.568;2023-10-09T09:39:57;7.20;;;3.72;;
67902;SDS011;54708;43.612;1.568;2023-10-09T09:42:23;8.77;;;4.20;;
67902;SDS011;54708;43.612;1.568;2023-10-09T09:44:52;5.53;;;3.95;;
67902;SDS011;54708;43.612;1.568;2023-10-09T09:47:19;6.88;;;4.03;;
67902;SDS011;54708;43.612;1.568;2023-10-09T09:49:52;5.53;;;3.92;;
67902;SDS011;54708;43.612;1.568;2023-10-09T09:52:36;7.85;;;4.32;;
67902;SDS011;54708;43.612;1.568;2023-10-09T09:55:06;5.70;;;3.97;;
67902;SDS011;54708;43.612;1.568;2023-10-09T09:57:39;4.78;;;3.55;;
67902;SDS011;54708;43.612;1.568;2023-10-09T10:00:06;10.27;;;4.68;;
67902;SDS011;54708;43.612;1.568;2023-10-09T10:02:53;7.82;;;4.30;;
67902;SDS011;54708;43.612;1.568;2023-10-09T10:05:22;6.38;;;4.28;;
67902;SDS011;54708;43.612;1.568;2023-10-09T10:07:52;8.77;;;4.47;;
67902;SDS011;54708;43.612;1.568;2023-10-09T10:10:39;9.15;;;4.68;;
67902;SDS011;54708;43.612;1.568;2023-10-09T10:16:06;6.07;;;4.45;;
67902;SDS011;54708;43.612;1.568;2023-10-09T10:18:57;5.90;;;4.03;;
67902;SDS011;54708;43.612;1.568;2023-10-09T10:21:46;8.15;;;4.88;;
67902;SDS011;54708;43.612;1.568;2023-10-09T10:27:16;5.30;;;4.18;;
67902;SDS011;54708;43.612;1.568;2023-10-09T10:30:39;6.50;;;4.38;;
67902;SDS011;54708;43.612;1.568;2023-10-09T10:32:53;8.05;;;4.72;;
67902;SDS011;54708;43.612;1.568;2023-10-09T10:35:34;8.23;;;5.00;;
67902;SDS011;54708;43.612;1.568;2023-10-09T10:38:28;7.05;;;4.32;;
67902;SDS011;54708;43.612;1.568;2023-10-09T10:41:18;7.95;;;4.47;;
67902;SDS011;54708;43.612;1.568;2023-10-09T10:43:47;7.20;;;3.95;;
67902;SDS011;54708;43.612;1.568;2023-10-09T10:46:13;5.85;;;4.10;;
67902;SDS011;54708;43.612;1.568;2023-10-09T10:48:40;8.48;;;4.72;;
67902;SDS011;54708;43.612;1.568;2023-10-09T10:51:11;7.57;;;3.85;;
67902;SDS011;54708;43.612;1.568;2023-10-09T10:53:52;5.68;;;4.00;;
67902;SDS011;54708;43.612;1.568;2023-10-09T10:56:22;9.18;;;4.82;;
67902;SDS011;54708;43.612;1.568;2023-10-09T10:58:59;8.10;;;4.35;;
67902;SDS011;54708;43.612;1.568;2023-10-09T11:01:31;7.60;;;4.23;;
67902;SDS011;54708;43.612;1.568;2023-10-09T11:04:36;6.22;;;4.35;;
67902;SDS011;54708;43.612;1.568;2023-10-09T11:07:01;8.93;;;4.32;;
67902;SDS011;54708;43.612;1.568;2023-10-09T11:09:50;8.43;;;4.63;;
67902;SDS011;54708;43.612;1.568;2023-10-09T11:15:29;7.60;;;4.82;;
67902;SDS011;54708;43.612;1.568;2023-10-09T11:18:03;6.32;;;5.13;;
67902;SDS011;54708;43.612;1.568;2023-10-09T11:20:36;7.68;;;4.88;;
67902;SDS011;54708;43.612;1.568;2023-10-09T11:23:18;10.77;;;4.20;;
67902;SDS011;54708;43.612;1.568;2023-10-09T11:25:54;7.95;;;4.22;;
67902;SDS011;54708;43.612;1.568;2023-10-09T11:28:32;9.00;;;3.75;;
67902;SDS011;54708;43.612;1.568;2023-10-09T11:31:13;8.57;;;4.43;;
67902;SDS011;54708;43.612;1.568;2023-10-09T11:33:48;4.95;;;3.47;;
67902;SDS011;54708;43.612;1.568;2023-10-09T11:36:16;4.65;;;4.05;;
67902;SDS011;54708;43.612;1.568;2023-10-09T11:38:42;6.63;;;4.88;;
67902;SDS011;54708;43.612;1.568;2023-10-09T11:41:11;5.57;;;3.83;;
67902;SDS011;54708;43.612;1.568;2023-10-09T11:43:47;4.88;;;3.60;;
67902;SDS011;54708;43.612;1.568;2023-10-09T11:46:17;6.82;;;4.00;;
67902;SDS011;54708;43.612;1.568;2023-10-09T11:49:04;6.15;;;3.55;;
67902;SDS011;54708;43.612;1.568;2023-10-09T11:52:05;8.20;;;4.38;;
67902;SDS011;54708;43.612;1.568;2023-10-09T11:54:34;6.50;;;4.25;;
67902;SDS011;54708;43.612;1.568;2023-10-09T11:57:00;4.63;;;4.00;;
67902;SDS011;54708;43.612;1.568;2023-10-09T11:59:35;7.18;;;4.20;;
67902;SDS011;54708;43.612;1.568;2023-10-09T12:02:07;4.53;;;3.33;;
67902;SDS011;54708;43.612;1.568;2023-10-09T12:04:40;5.75;;;3.90;;
67902;SDS011;54708;43.612;1.568;2023-10-09T12:07:09;6.45;;;4.15;;
67902;SDS011;54708;43.612;1.568;2023-10-09T12:09:36;5.20;;;4.38;;
67902;SDS011;54708;43.612;1.568;2023-10-09T12:12:02;5.00;;;3.65;;
67902;SDS011;54708;43.612;1.568;2023-10-09T12:14:29;6.35;;;3.88;;
67902;SDS011;54708;43.612;1.568;2023-10-09T12:17:06;5.47;;;3.92;;
67902;SDS011;54708;43.612;1.568;2023-10-09T12:19:36;5.60;;;3.40;;
67902;SDS011;54708;43.612;1.568;2023-10-09T12:24:41;7.90;;;4.50;;
67902;SDS011;54708;43.612;1.568;2023-10-09T12:27:08;3.53;;;2.90;;
67902;SDS011;54708;43.612;1.568;2023-10-09T12:29:36;6.18;;;3.55;;
67902;SDS011;54708;43.612;1.568;2023-10-09T12:32:02;9.15;;;3.85;;
67902;SDS011;54708;43.612;1.568;2023-10-09T12:34:28;6.88;;;4.28;;
67902;SDS011;54708;43.612;1.568;2023-10-09T12:36:56;6.32;;;3.53;;
67902;SDS011;54708;43.612;1.568;2023-10-09T12:39:25;9.75;;;4.25;;
67902;SDS011;54708;43.612;1.568;2023-10-09T12:41:56;8.75;;;4.45;;
67902;SDS011;54708;43.612;1.568;2023-10-09T12:44:23;8.48;;;3.88;;
67902;SDS011;54708;43.612;1.568;2023-10-09T12:46:52;12.73;;;4.10;;
67902;SDS011;54708;43.612;1.568;2023-10-09T12:49:20;7.40;;;4.47;;
67902;SDS011;54708;43.612;1.568;2023-10-09T12:51:55;6.10;;;3.60;;
67902;SDS011;54708;43.612;1.568;2023-10-09T12:54:26;6.00;;;4.22;;
67902;SDS011;54708;43.612;1.568;2023-10-09T12:56:52;8.02;;;4.25;;
67902;SDS011;54708;43.612;1.568;2023-10-09T12:59:22;4.65;;;3.58;;
67902;SDS011;54708;43.612;1.568;2023-10-09T13:01:49;7.20;;;3.60;;
67902;SDS011;54708;43.612;1.568;2023-10-09T13:04:17;10.95;;;4.20;;
67902;SDS011;54708;43.612;1.568;2023-10-09T13:06:47;6.18;;;3.70;;
67902;SDS011;54708;43.612;1.568;2023-10-09T13:09:13;5.30;;;3.50;;
67902;SDS011;54708;43.612;1.568;2023-10-09T13:11:50;6.55;;;3.30;;
67902;SDS011;54708;43.612;1.568;2023-10-09T13:14:16;5.35;;;3.88;;
67902;SDS011;54708;43.612;1.568;2023-10-09T13:19:15;7.18;;;3.60;;
67902;SDS011;54708;43.612;1.568;2023-10-09T13:21:42;4.25;;;3.58;;
67902;SDS011;54708;43.612;1.568;2023-10-09T13:24:08;6.72;;;2.85;;
67902;SDS011;54708;43.612;1.568;2023-10-09T13:26:49;5.80;;;3.30;;
67902;SDS011;54708;43.612;1.568;2023-10-09T13:29:17;6.78;;;3.80;;
67902;SDS011;54708;43.612;1.568;2023-10-09T13:31:47;4.75;;;3.38;;
67902;SDS011;54708;43.612;1.568;2023-10-09T13:34:14;5.53;;;3.92;;
67902;SDS011;54708;43.612;1.568;2023-10-09T13:36:42;6.57;;;3.83;;
67902;SDS011;54708;43.612;1.568;2023-10-09T13:39:30;5.80;;;3.63;;
67902;SDS011;54708;43.612;1.568;2023-10-09T13:42:02;5.07;;;3.58;;
67902;SDS011;54708;43.612;1.568;2023-10-09T13:44:32;5.35;;;3.20;;
67902;SDS011;54708;43.612;1.568;2023-10-09T13:46:59;6.25;;;3.28;;
67902;SDS011;54708;43.612;1.568;2023-10-09T13:49:26;7.07;;;3.03;;
67902;SDS011;54708;43.612;1.568;2023-10-09T13:51:55;4.80;;;3.85;;
67902;SDS011;54708;43.612;1.568;2023-10-09T13:54:21;7.00;;;3.40;;
67902;SDS011;54708;43.612;1.568;2023-10-09T13:57:07;5.05;;;3.30;;
67902;SDS011;54708;43.612;1.568;2023-10-09T13:59:36;5.07;;;3.30;;
67902;SDS011;54708;43.612;1.568;2023-10-09T14:04:41;4.68;;;3.88;;
67902;SDS011;54708;43.612;1.568;2023-10-09T14:07:07;8.57;;;3.53;;
67902;SDS011;54708;43.612;1.568;2023-10-09T14:09:33;3.97;;;3.00;;
67902;SDS011;54708;43.612;1.568;2023-10-09T14:12:10;5.55;;;2.80;;
67902;SDS011;54708;43.612;1.568;2023-10-09T14:17:04;5.50;;;2.83;;
67902;SDS011;54708;43.612;1.568;2023-10-09T14:19:36;6.57;;;3.00;;
67902;SDS011;54708;43.612;1.568;2023-10-09T14:22:12;5.63;;;3.40;;
67902;SDS011;54708;43.612;1.568;2023-10-09T14:24:44;5.15;;;3.35;;
67902;SDS011;54708;43.612;1.568;2023-10-09T14:27:14;4.45;;;3.17;;
67902;SDS011;54708;43.612;1.568;2023-10-09T14:29:46;3.55;;;2.90;;
67902;SDS011;54708;43.612;1.568;2023-10-09T14:32:11;6.60;;;3.17;;
67902;SDS011;54708;43.612;1.568;2023-10-09T14:34:40;5.05;;;3.10;;
67902;SDS011;54708;43.612;1.568;2023-10-09T14:37:16;4.70;;;3.35;;
67902;SDS011;54708;43.612;1.568;2023-10-09T14:39:44;5.63;;;3.58;;
67902;SDS011;54708;43.612;1.568;2023-10-09T14:42:16;8.82;;;3.25;;
67902;SDS011;54708;43.612;1.568;2023-10-09T14:44:42;5.25;;;2.92;;
67902;SDS011;54708;43.612;1.568;2023-10-09T14:47:10;5.20;;;3.80;;
67902;SDS011;54708;43.612;1.568;2023-10-09T14:49:35;6.47;;;3.22;;
67902;SDS011;54708;43.612;1.568;2023-10-09T14:52:08;4.05;;;2.78;;
67902;SDS011;54708;43.612;1.568;2023-10-09T14:54:34;7.65;;;3.70;;
67902;SDS011;54708;43.612;1.568;2023-10-09T14:57:06;9.73;;;4.50;;
67902;SDS011;54708;43.612;1.568;2023-10-09T14:59:31;5.15;;;3.08;;
67902;SDS011;54708;43.612;1.568;2023-10-09T15:01:58;7.90;;;4.28;;
67902;SDS011;54708;43.612;1.568;2023-10-09T15:04:24;9.02;;;2.90;;
67902;SDS011;54708;43.612;1.568;2023-10-09T15:06:51;6.82;;;3.38;;
67902;SDS011;54708;43.612;1.568;2023-10-09T15:09:17;4.90;;;3.13;;
67902;SDS011;54708;43.612;1.568;2023-10-09T15:11:48;6.07;;;3.42;;
67902;SDS011;54708;43.612;1.568;2023-10-09T15:14:15;6.30;;;3.05;;
67902;SDS011;54708;43.612;1.568;2023-10-09T15:16:41;5.05;;;3.28;;
67902;SDS011;54708;43.612;1.568;2023-10-09T15:19:08;3.63;;;2.65;;
67902;SDS011;54708;43.612;1.568;2023-10-09T15:21:35;4.57;;;2.85;;
67902;SDS011;54708;43.612;1.568;2023-10-09T15:24:00;3.92;;;2.70;;
67902;SDS011;54708;43.612;1.568;2023-10-09T15:26:26;4.72;;;3.45;;
67902;SDS011;54708;43.612;1.568;2023-10-09T15:28:57;6.63;;;2.80;;
67902;SDS011;54708;43.612;1.568;2023-10-09T15:31:25;6.80;;;3.10;;
67902;SDS011;54708;43.612;1.568;2023-10-09T15:33:50;4.35;;;2.88;;
67902;SDS011;54708;43.612;1.568;2023-10-09T15:36:17;5.47;;;2.85;;
67902;SDS011;54708;43.612;1.568;2023-10-09T15:38:43;3.58;;;2.72;;
67902;SDS011;54708;43.612;1.568;2023-10-09T15:41:08;5.38;;;3.35;;
67902;SDS011;54708;43.612;1.568;2023-10-09T15:43:37;4.95;;;2.75;;
67902;SDS011;54708;43.612;1.568;2023-10-09T15:46:03;2.78;;;2.47;;
67902;SDS011;54708;43.612;1.568;2023-10-09T15:48:28;4.38;;;3.08;;
67902;SDS011;54708;43.612;1.568;2023-10-09T15:50:54;3.88;;;2.58;;
67902;SDS011;54708;43.612;1.568;2023-10-09T15:53:19;7.93;;;3.60;;
67902;SDS011;54708;43.612;1.568;2023-10-09T15:55:46;4.18;;;2.90;;
67902;SDS011;54708;43.612;1.568;2023-10-09T15:58:16;4.20;;;2.97;;
67902;SDS011;54708;43.612;1.568;2023-10-09T16:00:45;7.38;;;3.13;;
67902;SDS011;54708;43.612;1.568;2023-10-09T16:03:10;4.07;;;3.03;;